Pittsfield, IL

12:02 AM CDT on September 25, 2017 (GMT -0500)
Pittsfield Penstone Municipal

Weather History for KPPQ - January, 2012

Change the Weather History Date:

Thursday, January 5, 2012

  Actual Average (KUIN) Record (KUIN)
Temperature  
Mean Temperature 46 °F -  
Max Temperature 59 °F 31 °F 59 °F (1939)
Min Temperature 34 °F 16 °F -16 °F (1999)
Degree Days  
Heating Degree Days 18    
Moisture  
Dew Point 28 °F    
Average Humidity 51    
Maximum Humidity 65    
Minimum Humidity 32    
Precipitation  
Precipitation 0.00 in - - ()
Sea Level Pressure  
Sea Level Pressure 30.01 in    
Wind  
Wind Speed 9 mph (SW)    
Max Wind Speed 15 mph    
Max Gust Speed 18 mph    
Visibility 10 miles    
Events      
Averages and records for this station are not official NWS values.
T = Trace of Precipitation, MM = Missing Value Source: NWS Daily Summary

Daily Weather History Graph

Daily Weather History Graph

Search for Another Location

Airport or City:

Trip Planner

Search our weather history database for the weather conditions in past years. The results will help you decide how hot, cold, wet, or windy it might be!

Date:

Astronomy

Jan. 05, 2012 Rise Set
Actual Time 7:24 AM CST 4:52 PM CST
Civil Twilight 6:54 AM CST 5:22 PM CST
Nautical Twilight 6:20 AM CST 5:56 PM CST
Astronomical Twilight 5:47 AM CST 6:29 PM CST
Moon 1:56 PM CST (1/5) 4:09 AM CST (1/5)
Length of Visible Light 10h 28m
Length of Day
9h 28m
Waxing Gibbous, 88% of the Moon is Illuminated
Jan 5
Waxing Gibbous
Jan 9
Full
Jan 16
Last Quarter
Jan 23
New
Jan 30
First Quarter

Hourly Weather History & Observations

Time (CST) Temp. Windchill Dew Point Humidity Pressure Visibility Wind Dir Wind Speed Gust Speed Precip Events Conditions
12:15 AM 38.3 °F 32.5 °F 26.1 °F 61% 30.11 in 10.0 mi West 8.1 mph - N/A   Clear
12:35 AM 37.4 °F 31.4 °F 25.7 °F 63% 30.11 in 10.0 mi WSW 8.1 mph - N/A   Clear
12:55 AM 38.3 °F 31.9 °F 25.7 °F 61% 30.11 in 10.0 mi WSW 9.2 mph - N/A   Clear
1:15 AM 38.8 °F 32.1 °F 25.5 °F 59% 30.10 in 10.0 mi WSW 10.4 mph - N/A   Clear
1:35 AM 37.8 °F 32.5 °F 25.5 °F 61% 30.10 in 10.0 mi WSW 6.9 mph - N/A   Clear
1:55 AM 37.4 °F 32.1 °F 25.3 °F 62% 30.09 in 10.0 mi WSW 6.9 mph - N/A   Clear
2:15 AM 37.9 °F 30.9 °F 25.0 °F 60% 30.08 in 10.0 mi SW 10.4 mph - N/A   Clear
2:35 AM 38.1 °F 32.3 °F 24.8 °F 59% 30.07 in 10.0 mi SW 8.1 mph - N/A   Clear
2:55 AM 39.4 °F 34.5 °F 24.3 °F 55% 30.08 in 10.0 mi WSW 6.9 mph - N/A   Clear
3:15 AM 37.8 °F 33.3 °F 24.3 °F 58% 30.07 in 10.0 mi SW 5.8 mph - N/A   Clear
3:35 AM 38.1 °F 32.9 °F 24.4 °F 58% 30.07 in 10.0 mi SSW 6.9 mph - N/A   Clear
3:55 AM 37.6 °F 35.1 °F 24.3 °F 59% 30.08 in 10.0 mi SSW 3.5 mph - N/A   Clear
4:15 AM 34.5 °F 29.4 °F 23.9 °F 65% 30.07 in 10.0 mi SSW 5.8 mph - N/A   Clear
4:35 AM 37.8 °F 32.5 °F 25.0 °F 60% 30.07 in 10.0 mi SW 6.9 mph - N/A   Clear
4:55 AM 38.3 °F 33.2 °F 25.5 °F 60% 30.06 in 10.0 mi SW 6.9 mph - N/A   Clear
5:15 AM 38.8 °F 33.8 °F 25.7 °F 59% 30.06 in 10.0 mi SW 6.9 mph - N/A   Clear
5:35 AM 39.7 °F 34.9 °F 25.9 °F 58% 30.06 in 10.0 mi WSW 6.9 mph - N/A   Clear
5:55 AM 39.2 °F 33.6 °F 25.9 °F 59% 30.06 in 10.0 mi SW 8.1 mph - N/A   Clear
6:15 AM 39.0 °F 34.0 °F 26.1 °F 60% 30.06 in 10.0 mi WSW 6.9 mph - N/A   Clear
6:35 AM 37.8 °F 31.3 °F 26.2 °F 63% 30.07 in 10.0 mi WSW 9.2 mph - N/A   Clear
6:55 AM 37.4 °F 31.4 °F 26.2 °F 64% 30.07 in 10.0 mi WSW 8.1 mph - N/A   Clear
7:15 AM 37.6 °F 31.0 °F 26.4 °F 64% 30.07 in 10.0 mi WSW 9.2 mph - N/A   Clear
7:35 AM 37.9 °F 32.1 °F 26.6 °F 64% 30.06 in 10.0 mi WSW 8.1 mph - N/A   Clear
7:55 AM 38.3 °F 31.9 °F 26.6 °F 63% 30.05 in 10.0 mi WSW 9.2 mph - N/A   Clear
8:15 AM 39.2 °F 33.0 °F 27.3 °F 62% 30.05 in 10.0 mi WSW 9.2 mph - N/A   Clear
8:35 AM 41.0 °F 34.7 °F 28.4 °F 61% 30.05 in 10.0 mi SW 10.4 mph - N/A   Clear
8:55 AM 41.0 °F 34.7 °F 28.4 °F 61% 30.05 in 10.0 mi WSW 10.4 mph - N/A   Clear
9:15 AM 42.6 °F 36.8 °F 28.4 °F 57% 30.05 in 10.0 mi WSW 10.4 mph - N/A   Clear
9:35 AM 43.7 °F 38.1 °F 28.6 °F 55% 30.05 in 10.0 mi WSW 10.4 mph - N/A   Clear
9:55 AM 44.6 °F 38.4 °F 28.9 °F 54% 30.04 in 10.0 mi SW 12.7 mph - N/A   Clear
10:15 AM 45.9 °F 40.8 °F 29.3 °F 52% 30.04 in 10.0 mi WSW 10.4 mph - N/A   Clear
10:35 AM 47.3 °F - 29.3 °F 50% 30.03 in 10.0 mi WSW 11.5 mph 16.1 mph N/A   Clear
10:55 AM 48.2 °F - 30.2 °F 50% 30.03 in 10.0 mi SW 12.7 mph - N/A   Clear
11:15 AM 50.2 °F - 30.0 °F 46% 30.01 in 10.0 mi SW 11.5 mph - N/A   Clear
11:35 AM 51.8 °F - 30.2 °F 44% 30.00 in 10.0 mi SW 15.0 mph - N/A   Clear
11:55 AM 53.1 °F - 29.5 °F 40% 29.99 in 10.0 mi SW 12.7 mph 17.3 mph N/A   Clear
12:15 PM 54.0 °F - 30.2 °F 40% 29.97 in 10.0 mi SW 12.7 mph - N/A   Clear
12:35 PM 55.2 °F - 30.2 °F 38% 29.96 in 10.0 mi SW 10.4 mph - N/A   Clear
12:55 PM 56.5 °F - 29.5 °F 36% 29.95 in 10.0 mi SW 11.5 mph - N/A   Clear
1:15 PM 57.2 °F - 29.7 °F 35% 29.93 in 10.0 mi SW 11.5 mph 17.3 mph N/A   Clear
1:35 PM 58.1 °F - 29.1 °F 33% 29.93 in 10.0 mi SW 12.7 mph 16.1 mph N/A   Clear
1:55 PM 59.0 °F - 29.1 °F 32% 29.92 in 10.0 mi WSW 12.7 mph 17.3 mph N/A   Clear
2:15 PM 58.5 °F - 29.1 °F 33% 29.92 in 10.0 mi WSW 12.7 mph 18.4 mph N/A   Clear
2:35 PM 59.0 °F - 29.5 °F 33% 29.92 in 10.0 mi WSW 12.7 mph 16.1 mph N/A   Clear
2:55 PM 59.4 °F - 29.3 °F 32% 29.91 in 10.0 mi SW 13.8 mph - N/A   Clear
3:15 PM 59.0 °F - 29.5 °F 33% 29.91 in 10.0 mi SW 9.2 mph - N/A   Clear
3:35 PM 58.3 °F - 30.4 °F 35% 29.91 in 10.0 mi SW 11.5 mph - N/A   Clear
3:55 PM 58.1 °F - 30.4 °F 35% 29.90 in 10.0 mi SW 11.5 mph - N/A   Clear
4:15 PM 57.7 °F - 30.9 °F 36% 29.91 in 10.0 mi SW 8.1 mph - N/A   Clear
4:35 PM 56.7 °F - 31.3 °F 38% 29.90 in 10.0 mi SSW 6.9 mph - N/A   Clear
4:55 PM 55.2 °F - 31.1 °F 40% 29.89 in 10.0 mi SW 5.8 mph - N/A   Clear
5:15 PM 54.0 °F - 31.1 °F 42% 29.89 in 10.0 mi SW 6.9 mph - N/A   Clear
5:35 PM 53.6 °F - 31.1 °F 42% 29.89 in 10.0 mi SSW 8.1 mph - N/A   Clear
5:55 PM 51.8 °F - 32.0 °F 47% 29.89 in 10.0 mi SSW 8.1 mph - N/A   Clear
6:15 PM 52.3 °F - 30.9 °F 44% 29.88 in 10.0 mi SSW 8.1 mph - N/A   Clear
6:35 PM 52.5 °F - 30.4 °F 43% 29.88 in 10.0 mi SSW 5.8 mph - N/A   Clear
6:55 PM 51.8 °F - 30.4 °F 44% 29.88 in 10.0 mi SSW 8.1 mph - N/A   Clear
7:15 PM 52.9 °F - 30.0 °F 42% 29.87 in 10.0 mi SSW 8.1 mph - N/A   Clear
7:35 PM 51.6 °F - 30.0 °F 44% 29.87 in 10.0 mi SSW 8.1 mph - N/A   Clear
7:55 PM 51.1 °F - 29.8 °F 44% 29.87 in 10.0 mi SSW 8.1 mph - N/A   Clear
8:15 PM 50.5 °F - 29.8 °F 45% 29.86 in 10.0 mi SSW 8.1 mph - N/A   Clear
8:35 PM 50.7 °F - 29.5 °F 44% 29.86 in 10.0 mi SSW 8.1 mph - N/A   Clear
8:55 PM 50.4 °F - 28.8 °F 43% 29.86 in 10.0 mi SW 4.6 mph - N/A   Clear
9:15 PM 50.4 °F - 28.8 °F 43% 29.86 in 10.0 mi SW 5.8 mph - N/A   Clear
9:35 PM 49.8 °F - 28.9 °F 45% 29.85 in 10.0 mi SW 6.9 mph - N/A   Clear
9:55 PM 51.1 °F - 28.9 °F 43% 29.85 in 10.0 mi SW 9.2 mph - N/A   Clear
10:15 PM 51.6 °F - 29.3 °F 42% 29.85 in 10.0 mi SW 13.8 mph - N/A   Clear
10:35 PM 52.5 °F - 29.8 °F 42% 29.84 in 10.0 mi SW 12.7 mph 18.4 mph N/A   Clear
10:55 PM 52.2 °F - 30.0 °F 43% 29.84 in 10.0 mi SW 13.8 mph 18.4 mph N/A   Clear
11:15 PM 52.2 °F - 29.8 °F 42% 29.83 in 10.0 mi SW 12.7 mph - N/A   Clear
11:35 PM 52.3 °F - 29.5 °F 42% 29.83 in 10.0 mi SW 10.4 mph - N/A   Clear
11:55 PM 53.1 °F - 29.1 °F 40% 29.83 in 10.0 mi SW 13.8 mph - N/A   Clear